createdAt,value
2023-01-26T11:45:46.222Z,68.57
2023-01-26T11:48:32.505Z,70.55
2023-01-26T11:51:09.083Z,66.33
2023-01-26T11:54:05.650Z,58.98
2023-01-26T11:56:45.326Z,78.62
2023-01-26T11:59:24.425Z,87.42
2023-01-26T12:02:17.520Z,102.40
2023-01-26T12:04:49.400Z,95.83
2023-01-26T12:07:25.915Z,85.03
2023-01-26T12:09:56.873Z,74.35
2023-01-26T12:12:48.872Z,71.60
2023-01-26T12:15:34.847Z,66.12
2023-01-26T12:18:11.367Z,75.03
2023-01-26T12:20:47.863Z,69.37
2023-01-26T12:23:30.576Z,62.53
2023-01-26T12:26:04.051Z,64.77
2023-01-26T12:28:40.682Z,68.33
2023-01-26T12:31:20.361Z,60.67
2023-01-26T12:33:53.751Z,64.12
2023-01-26T12:36:48.413Z,63.10
2023-01-26T12:39:24.689Z,66.28
2023-01-26T12:42:16.207Z,66.95
2023-01-26T12:44:49.666Z,67.35
2023-01-26T12:47:32.170Z,66.95
2023-01-26T12:50:30.035Z,69.65
2023-01-26T12:53:09.412Z,71.77
2023-01-26T12:55:52.723Z,69.85
2023-01-26T12:58:28.788Z,73.87
2023-01-26T13:01:08.900Z,71.75
2023-01-26T13:03:42.401Z,72.50
2023-01-26T13:06:15.878Z,74.90
2023-01-26T13:09:01.189Z,74.75
2023-01-26T13:12:00.657Z,75.28
2023-01-26T13:14:39.462Z,72.85
2023-01-26T13:17:23.617Z,77.60
2023-01-26T13:19:57.903Z,75.22
2023-01-26T13:22:40.743Z,74.10
2023-01-26T13:25:19.669Z,73.02
2023-01-26T13:28:05.077Z,78.97
2023-01-26T13:30:47.438Z,77.12
2023-01-26T13:33:24.085Z,73.20
2023-01-26T13:35:56.523Z,75.45
2023-01-26T13:38:35.771Z,79.53
2023-01-26T13:41:09.177Z,83.90
2023-01-26T13:43:48.506Z,72.80
2023-01-26T13:46:43.215Z,75.32
2023-01-26T13:49:43.601Z,72.92
2023-01-26T13:52:26.093Z,74.20
2023-01-26T13:54:58.247Z,72.67
2023-01-26T13:57:31.807Z,73.47
2023-01-26T14:00:03.214Z,69.77
2023-01-26T14:02:36.616Z,75.55
2023-01-26T14:05:07.782Z,72.22
2023-01-26T14:07:41.241Z,69.30
2023-01-26T14:10:14.928Z,69.00
2023-01-26T14:12:48.171Z,72.20
2023-01-26T14:15:30.862Z,76.40
2023-01-26T14:18:07.044Z,78.70
2023-01-26T14:20:40.359Z,85.95
2023-01-26T14:23:18.268Z,79.95
2023-01-26T14:25:51.800Z,76.25
2023-01-26T14:28:25.883Z,74.73
2023-01-26T14:31:00.617Z,74.72
2023-01-26T14:33:31.939Z,76.17
2023-01-26T14:36:05.307Z,72.87
2023-01-26T14:38:50.571Z,75.45
2023-01-26T14:41:37.165Z,76.62
2023-01-26T14:44:09.130Z,79.85
2023-01-26T14:46:54.938Z,81.63
2023-01-26T14:51:59.473Z,88.85
2023-01-26T14:54:33.005Z,88.35
2023-01-26T14:57:05.159Z,89.32
2023-01-26T14:59:41.378Z,90.10
2023-01-26T15:02:23.735Z,89.77
2023-01-26T15:04:57.340Z,90.03
2023-01-26T15:07:36.443Z,94.40
2023-01-26T15:10:26.518Z,94.65
2023-01-26T15:13:10.452Z,97.20
2023-01-26T15:15:44.011Z,98.75
2023-01-26T15:18:20.464Z,94.87
2023-01-26T15:21:02.749Z,96.72
2023-01-26T15:23:36.329Z,102.85
2023-01-26T15:26:12.461Z,99.03
2023-01-26T15:28:43.302Z,92.05
2023-01-26T15:31:33.385Z,96.65
2023-01-26T15:34:04.600Z,93.17
2023-01-26T15:36:51.090Z,93.33
2023-01-26T15:39:22.202Z,97.02
2023-01-26T15:42:14.886Z,99.50
2023-01-26T15:44:45.472Z,93.87
2023-01-26T15:47:16.057Z,95.12
2023-01-26T15:49:46.999Z,95.97
2023-01-26T15:52:19.769Z,95.10
2023-01-26T15:54:51.953Z,84.47
2023-01-26T15:57:22.569Z,82.17
2023-01-26T15:59:53.100Z,83.75
2023-01-26T16:02:23.740Z,85.03
2023-01-26T16:04:54.520Z,89.90
2023-01-26T16:07:26.621Z,90.97
2023-01-26T16:10:00.150Z,87.92
2023-01-26T16:12:32.154Z,90.60
2023-01-26T16:15:02.599Z,90.22
2023-01-26T16:17:33.279Z,81.65
2023-01-26T16:20:04.228Z,89.03
2023-01-26T16:22:37.750Z,87.27
2023-01-26T16:25:14.033Z,91.65
2023-01-26T16:27:44.605Z,90.15
2023-01-26T16:30:15.335Z,89.90
2023-01-26T16:32:46.191Z,89.17
2023-01-26T16:35:19.639Z,88.82
2023-01-26T16:37:51.827Z,88.22
2023-01-26T16:40:22.672Z,86.63
2023-01-26T16:42:54.587Z,85.50
2023-01-26T16:45:27.597Z,79.92
2023-01-26T16:48:00.002Z,79.42
2023-01-26T16:50:31.696Z,74.42
2023-01-26T16:53:05.620Z,79.45
2023-01-26T16:55:36.194Z,79.22
2023-01-26T16:58:06.776Z,78.87
2023-01-26T17:00:37.388Z,77.35
2023-01-26T17:03:09.507Z,78.07
2023-01-26T17:05:40.683Z,70.42
2023-01-26T17:08:13.293Z,70.78
2023-01-26T17:11:00.701Z,70.78
2023-01-26T17:13:17.620Z,69.27
2023-01-26T17:15:48.260Z,69.70
2023-01-26T17:18:18.790Z,68.07
2023-01-26T17:20:49.391Z,62.38
2023-01-26T17:23:19.924Z,60.83
2023-01-26T17:25:50.495Z,56.40
2023-01-26T17:28:21.113Z,60.60
2023-01-26T17:30:52.940Z,60.58
2023-01-26T17:33:23.552Z,63.20
2023-01-26T17:36:04.737Z,62.30
2023-01-26T17:38:35.422Z,62.98
2023-01-26T17:41:06.635Z,60.67
2023-01-26T17:43:37.819Z,66.00
2023-01-26T17:46:16.910Z,63.02
2023-01-26T17:48:48.664Z,62.00
2023-01-26T17:51:21.532Z,63.17
2023-01-26T17:53:54.080Z,58.55
2023-01-26T17:56:25.227Z,58.02
2023-01-26T17:58:56.716Z,53.55
2023-01-26T18:01:28.018Z,57.10
2023-01-26T18:03:58.617Z,53.05
2023-01-26T18:06:29.667Z,57.27
2023-01-26T18:09:00.246Z,58.50
2023-01-26T18:11:32.028Z,64.37
2023-01-26T18:14:02.980Z,56.20
2023-01-26T18:16:33.985Z,50.92
2023-01-26T18:19:04.797Z,53.25
2023-01-26T18:21:36.184Z,55.67
2023-01-26T18:24:08.580Z,53.08
2023-01-26T18:26:40.117Z,53.58
2023-01-26T18:29:12.410Z,54.05
2023-01-26T18:31:43.698Z,56.30
2023-01-26T18:34:14.540Z,54.88
2023-01-26T18:36:45.106Z,55.28
2023-01-26T18:39:17.627Z,53.83
2023-01-26T18:41:48.197Z,52.03
2023-01-26T18:44:18.979Z,53.20
2023-01-26T18:46:49.557Z,58.78
2023-01-26T18:52:39.700Z,56.58
2023-01-26T18:55:26.252Z,53.68
2023-01-26T18:58:11.010Z,58.58
2023-01-26T19:03:21.724Z,54.65
2023-01-26T19:05:52.662Z,61.85
2023-01-26T19:08:37.385Z,60.60
2023-01-26T19:11:06.887Z,64.70
2023-01-26T19:13:39.341Z,66.15
2023-01-26T19:16:15.746Z,67.47
2023-01-26T19:18:51.909Z,61.98
2023-01-26T19:21:30.624Z,65.57
2023-01-26T19:24:13.326Z,66.12
2023-01-26T19:26:45.283Z,62.45
2023-01-26T19:29:17.605Z,66.05
2023-01-26T19:31:48.556Z,63.75
2023-01-26T19:35:06.982Z,60.67
2023-01-26T19:36:51.478Z,64.00
2023-01-26T19:39:23.535Z,71.77
2023-01-26T19:41:54.171Z,68.62
2023-01-26T19:44:25.069Z,67.78
2023-01-26T19:46:56.083Z,68.72
2023-01-26T19:49:38.584Z,68.40
2023-01-26T19:52:07.657Z,64.62
2023-01-26T19:54:38.223Z,66.87
2023-01-26T19:57:10.297Z,63.45
2023-01-26T19:59:40.900Z,62.55
2023-01-26T20:02:13.125Z,63.95
2023-01-26T20:04:45.557Z,64.77
2023-01-26T20:07:16.184Z,62.83
2023-01-26T20:09:46.845Z,68.02
2023-01-26T20:12:18.211Z,67.47
2023-01-26T20:14:49.080Z,68.07
2023-01-26T20:17:20.332Z,70.15
2023-01-26T20:19:51.078Z,69.65
2023-01-26T20:22:24.438Z,67.65
2023-01-26T20:24:55.782Z,63.15
2023-01-26T20:27:26.472Z,61.88
2023-01-26T20:29:57.120Z,62.93
2023-01-26T20:32:32.254Z,60.20
2023-01-26T20:35:10.172Z,57.98
2023-01-26T20:37:43.067Z,68.28
2023-01-26T20:40:17.000Z,66.15
2023-01-26T20:42:49.862Z,60.40
2023-01-26T20:45:21.902Z,59.03
2023-01-26T20:47:54.558Z,58.15
2023-01-26T20:50:28.362Z,59.55
2023-01-26T20:53:00.404Z,64.97
2023-01-26T20:55:33.062Z,57.75
2023-01-26T20:58:06.858Z,61.45
2023-01-26T21:00:39.185Z,61.10
2023-01-26T21:03:12.024Z,62.53
2023-01-26T21:05:43.021Z,57.73
2023-01-26T21:08:15.613Z,63.00
2023-01-26T21:10:47.565Z,58.80
2023-01-26T21:13:22.126Z,60.50
2023-01-26T21:15:54.408Z,62.75
2023-01-26T21:18:25.309Z,63.08
2023-01-26T21:21:01.227Z,60.55
2023-01-26T21:23:35.934Z,61.20
2023-01-26T21:26:21.898Z,56.73
2023-01-26T21:28:56.161Z,57.40
2023-01-26T21:31:31.757Z,58.58
2023-01-26T21:34:04.008Z,57.78
2023-01-26T21:36:37.879Z,60.20
2023-01-26T21:39:12.490Z,58.42
2023-01-26T21:42:00.029Z,60.73
2023-01-26T21:44:35.161Z,59.42
2023-01-26T21:47:08.762Z,65.92
2023-01-26T21:49:40.566Z,57.70
2023-01-26T21:52:32.074Z,65.57
2023-01-26T21:55:04.841Z,60.17
2023-01-26T21:57:55.247Z,67.40
2023-01-26T22:00:27.522Z,67.78
2023-01-26T22:03:00.343Z,64.62
2023-01-26T22:05:55.711Z,64.72
2023-01-26T22:08:29.198Z,57.83
2023-01-26T22:11:03.254Z,58.38
2023-01-26T22:13:42.186Z,57.90
2023-01-26T22:16:20.336Z,58.17
2023-01-26T22:18:53.592Z,54.20
2023-01-26T22:21:28.905Z,56.58
2023-01-26T22:24:12.432Z,53.95
2023-01-26T22:26:47.313Z,64.10
2023-01-26T22:29:22.893Z,61.75
2023-01-26T22:31:55.315Z,61.98
2023-01-26T22:34:30.455Z,65.32
2023-01-26T22:37:12.832Z,62.88
2023-01-26T22:39:45.098Z,65.10
2023-01-26T22:42:23.159Z,67.30
2023-01-26T22:44:55.063Z,61.33
2023-01-26T22:47:28.727Z,65.52
2023-01-26T22:50:02.277Z,66.95
2023-01-26T22:52:39.427Z,68.20
2023-01-26T22:55:13.019Z,69.05
2023-01-26T22:57:45.990Z,68.80
2023-01-26T23:00:19.029Z,68.75
2023-01-26T23:02:50.595Z,72.53
2023-01-26T23:05:24.706Z,68.22
2023-01-26T23:07:57.995Z,73.12
2023-01-26T23:10:34.775Z,71.45
2023-01-26T23:13:09.601Z,73.55
2023-01-26T23:15:41.763Z,68.28
2023-01-26T23:18:16.659Z,61.88
2023-01-26T23:20:51.226Z,64.92
2023-01-26T23:23:25.041Z,62.67
2023-01-26T23:25:59.214Z,64.17
2023-01-26T23:28:33.475Z,60.75
2023-01-26T23:31:07.654Z,59.18
2023-01-26T23:33:40.846Z,62.48
2023-01-26T23:36:14.595Z,60.03
2023-01-26T23:38:46.445Z,60.08
2023-01-26T23:41:22.151Z,61.23
2023-01-26T23:43:52.799Z,57.27
2023-01-26T23:46:23.385Z,57.53
2023-01-26T23:48:53.975Z,56.95
2023-01-26T23:51:24.548Z,57.83
2023-01-26T23:53:56.005Z,56.18
2023-01-26T23:56:27.570Z,54.23
2023-01-26T23:58:58.139Z,53.87
